Terminal Aerodrome Forecast
Issued by NWS

Home | Current Version | Previous Version | Graphics & Text | Print | Product List | Glossary On
Versions: 1 2 3 4 5 6 7 8 9 10 11 12 13 14 15 16 17 18 19 20 21 22 23 24
000
FTUS43 KGRB 241400 AAA
TAFAUW
TAF AMD
KAUW 241406Z 2414/2512 31009KT P6SM -DZ OVC011
     FM241600 31012G20KT 2SM -RASN OVC007
     FM241900 33012G20KT 3/4SM -SN OVC006
     FM250200 30012G18KT 6SM -SN OVC012=

USA.gov is the U.S. government's official web portal to all federal, state and local government web resources and services.